Time;durP1;ratioP1;P1;durP2;ratioP2;P2;SDS_P1;SDS_P2;PMS_P1;PMS_P2;Temp;Humidity;BMP_temperature;BMP_pressure;BME280_temperature;BME280_humidity;BME280_pressure;Samples;Min_cycle;Max_cycle;Signal;HPM_P1;HPM_P2
2022/07/11 00:01:41;;;;;;;0.30;0.30;;;;;;;14.04;57.04;100845.34;5126948;28;20168;-70
2022/07/11 00:04:07;;;;;;;0.30;0.30;;;;;;;13.99;56.90;100837.59;5108315;28;20019;-70
2022/07/11 00:06:32;;;;;;;0.20;0.20;;;;;;;13.96;56.98;100840.25;5126738;28;20047;-70
2022/07/11 00:08:58;;;;;;;0.30;0.30;;;;;;;13.92;56.88;100843.78;5126812;28;20056;-70
2022/07/11 00:11:23;;;;;;;0.30;0.30;;;;;;;13.90;56.85;100846.41;5126570;28;20035;-70
2022/07/11 00:13:50;;;;;;;0.30;0.30;;;;;;;13.86;58.24;100847.34;5126978;28;20023;-70
2022/07/11 00:16:15;;;;;;;0.30;0.30;;;;;;;13.85;58.02;100836.03;5126838;28;20069;-69
2022/07/11 00:18:41;;;;;;;0.30;0.30;;;;;;;13.85;57.64;100851.69;5126857;28;20012;-70
2022/07/11 00:21:06;;;;;;;0.30;0.30;;;;;;;13.74;57.53;100838.81;5126756;28;20092;-70
2022/07/11 00:23:31;;;;;;;0.30;0.30;;;;;;;13.70;57.71;100831.06;5126630;28;20054;-70
2022/07/11 00:25:57;;;;;;;0.30;0.30;;;;;;;13.85;57.60;100848.25;5107708;28;20038;-70
2022/07/11 00:28:22;;;;;;;0.30;0.30;;;;;;;13.83;57.59;100848.28;5108219;28;20016;-70
2022/07/11 00:30:48;;;;;;;0.30;0.30;;;;;;;13.81;57.71;100852.63;5126731;28;20019;-70
2022/07/11 00:33:13;;;;;;;0.30;0.30;;;;;;;13.71;57.11;100830.16;5127051;28;20024;-70
2022/07/11 00:35:38;;;;;;;0.30;0.30;;;;;;;13.79;57.31;100849.19;5108016;28;20026;-70
2022/07/11 00:38:04;;;;;;;0.30;0.30;;;;;;;13.68;57.13;100831.06;5126088;28;20034;-70
2022/07/11 00:40:29;;;;;;;0.32;0.32;;;;;;;13.77;57.03;100847.50;5125972;28;20024;-71
2022/07/11 00:42:55;;;;;;;0.30;0.30;;;;;;;13.75;56.89;100850.13;5126495;28;20030;-71
2022/07/11 00:45:20;;;;;;;0.30;0.30;;;;;;;13.73;57.39;100851.88;5126038;28;20024;-71
2022/07/11 00:47:46;;;;;;;0.30;0.30;;;;;;;13.72;57.19;100851.00;5126026;28;20020;-70
2022/07/11 00:50:12;;;;;;;0.30;0.30;;;;;;;13.57;56.96;100831.22;5107496;28;20526;-70
2022/07/11 00:52:39;;;;;;;0.30;0.30;;;;;;;13.62;56.92;100841.59;5126019;28;20047;-68
2022/07/11 00:55:07;;;;;;;0.30;0.30;;;;;;;13.70;58.13;100852.81;5125763;28;20023;-69
2022/07/11 00:57:33;;;;;;;0.30;0.30;;;;;;;13.61;57.52;100843.34;5126047;28;20024;-69
2022/07/11 00:59:59;;;;;;;0.20;0.20;;;;;;;13.71;57.20;100861.47;5125952;28;20023;-69
2022/07/11 01:02:25;;;;;;;0.20;0.20;;;;;;;13.69;57.22;100864.09;5125906;28;20027;-69
2022/07/11 01:04:50;;;;;;;0.20;0.20;;;;;;;13.69;57.27;100855.44;5125330;28;20027;-69
2022/07/11 01:07:16;;;;;;;0.30;0.30;;;;;;;13.67;57.46;100859.78;5125832;28;20083;-69
2022/07/11 01:09:41;;;;;;;0.30;0.30;;;;;;;13.61;58.73;100856.38;5125646;28;20031;-69
2022/07/11 01:12:07;;;;;;;0.20;0.20;;;;;;;13.61;60.06;100860.75;5125435;28;20028;-69
2022/07/11 01:14:32;;;;;;;0.30;0.30;;;;;;;13.62;59.80;100852.03;5125565;28;20450;-69
2022/07/11 01:16:58;;;;;;;0.30;0.30;;;;;;;13.49;60.43;100827.84;5125729;28;20020;-69
2022/07/11 01:19:23;;;;;;;0.30;0.30;;;;;;;13.61;61.57;100853.78;5125542;28;20050;-69
2022/07/11 01:21:51;;;;;;;0.30;0.30;;;;;;;13.60;63.42;100857.28;5125254;28;20047;-68
2022/07/11 01:24:17;;;;;;;0.30;0.30;;;;;;;13.50;63.57;100837.38;5125154;28;20015;-69
2022/07/11 01:26:45;;;;;;;0.30;0.30;;;;;;;13.66;61.59;100856.31;5124956;28;20668;-68
2022/07/11 01:29:12;;;;;;;0.30;0.30;;;;;;;13.65;62.16;100853.72;5125635;28;20027;-68
2022/07/11 01:31:39;;;;;;;0.28;0.28;;;;;;;13.64;61.17;100855.50;5125440;28;20084;-68
2022/07/11 01:34:04;;;;;;;0.30;0.30;;;;;;;13.62;60.54;100852.91;5125197;28;20034;-68
2022/07/11 01:36:30;;;;;;;0.30;0.30;;;;;;;13.60;60.24;100857.28;5106659;28;20024;-68
2022/07/11 01:38:55;;;;;;;0.28;0.28;;;;;;;13.58;59.84;100852.94;5124956;28;20696;-67
2022/07/11 01:41:21;;;;;;;0.20;0.20;;;;;;;13.55;59.68;100858.22;5124948;28;20088;-69
2022/07/11 01:43:46;;;;;;;0.22;0.22;;;;;;;13.39;59.96;100835.78;5124970;28;20016;-68
2022/07/11 01:46:11;;;;;;;0.30;0.30;;;;;;;13.49;59.65;100861.75;5106278;28;20028;-68
2022/07/11 01:48:37;;;;;;;0.30;0.30;;;;;;;13.45;59.40;100860.91;5106536;28;20390;-68
2022/07/11 01:51:02;;;;;;;0.20;0.20;;;;;;;13.32;59.29;100839.34;5105384;28;20024;-68
2022/07/11 01:53:28;;;;;;;0.30;0.30;;;;;;;13.38;59.91;100860.16;5124831;28;20076;-68
2022/07/11 01:55:53;;;;;;;0.30;0.30;;;;;;;13.40;59.57;100870.56;5124521;28;20346;-68
2022/07/11 01:58:19;;;;;;;0.30;0.30;;;;;;;13.36;59.47;100861.91;5124593;28;20020;-68
2022/07/11 02:00:44;;;;;;;0.30;0.30;;;;;;;13.33;59.34;100864.56;5106515;28;20110;-69
2022/07/11 02:03:09;;;;;;;0.30;0.30;;;;;;;13.36;58.99;100872.34;5124391;28;20039;-68
2022/07/11 02:05:35;;;;;;;0.30;0.30;;;;;;;13.36;59.02;100866.25;5124514;28;20020;-68
2022/07/11 02:08:12;;;;;;;0.40;0.40;;;;;;;13.37;59.05;100868.84;5106443;28;20088;-68
2022/07/11 02:10:40;;;;;;;0.30;0.30;;;;;;;13.38;58.94;100864.50;5124458;28;20076;-68
2022/07/11 02:13:05;;;;;;;0.30;0.30;;;;;;;13.36;58.80;100863.63;5124679;28;20029;-69
2022/07/11 02:15:30;;;;;;;0.30;0.30;;;;;;;13.18;58.68;100836.06;5124394;28;20114;-68
2022/07/11 02:17:56;;;;;;;0.30;0.30;;;;;;;13.37;58.96;100861.00;5124313;28;20032;-68
2022/07/11 02:20:24;;;;;;;0.30;0.30;;;;;;;13.37;58.65;100868.84;5124149;28;20098;-68
2022/07/11 02:22:50;;;;;;;0.20;0.20;;;;;;;13.27;58.83;100849.81;5124408;28;20028;-68
2022/07/11 02:25:16;;;;;;;0.30;0.30;;;;;;;13.38;58.85;100865.38;5123984;28;20106;-68
2022/07/11 02:27:41;;;;;;;0.30;0.30;;;;;;;13.37;58.80;100861.00;5124278;28;20105;-68
2022/07/11 02:30:07;;;;;;;0.25;0.25;;;;;;;13.43;58.93;100867.03;5124218;28;20031;-67
2022/07/11 02:32:33;;;;;;;0.30;0.30;;;;;;;13.46;58.93;100861.78;5123943;28;20089;-69
2022/07/11 02:34:58;;;;;;;0.30;0.30;;;;;;;13.48;58.88;100865.25;5123893;28;20031;-68
2022/07/11 02:37:24;;;;;;;0.30;0.30;;;;;;;13.51;59.19;100867.84;5123927;28;20019;-68
2022/07/11 02:39:49;;;;;;;0.30;0.30;;;;;;;13.51;59.64;100860.00;5124094;28;20041;-69
2022/07/11 02:42:14;;;;;;;0.30;0.30;;;;;;;13.55;59.54;100861.69;5123789;28;20053;-68
2022/07/11 02:44:40;;;;;;;0.30;0.30;;;;;;;13.57;59.47;100865.16;5105372;28;20038;-68
2022/07/11 02:47:06;;;;;;;0.30;0.30;;;;;;;13.59;59.51;100858.16;5123912;28;20224;-68
2022/07/11 02:49:32;;;;;;;0.40;0.40;;;;;;;13.62;59.32;100860.75;5123963;28;20267;-68
2022/07/11 02:51:58;;;;;;;0.30;0.30;;;;;;;13.64;59.49;100860.72;5123967;28;20034;-68
2022/07/11 02:54:23;;;;;;;0.30;0.30;;;;;;;13.69;59.01;100856.28;5123893;28;20080;-68
2022/07/11 02:56:49;;;;;;;0.30;0.30;;;;;;;13.74;59.13;100859.69;5123691;28;20059;-68
2022/07/11 02:59:14;;;;;;;0.30;0.30;;;;;;;13.80;59.06;100861.31;5124232;28;20083;-68
2022/07/11 03:01:41;;;;;;;0.30;0.30;;;;;;;13.79;60.77;100854.41;5124684;28;20106;-69
2022/07/11 03:04:07;;;;;;;0.30;0.30;;;;;;;13.86;62.20;100861.28;5128362;28;20039;-68
2022/07/11 03:06:32;;;;;;;0.30;0.30;;;;;;;13.96;61.23;100861.13;5127956;28;20047;-68
2022/07/11 03:08:58;;;;;;;0.30;0.30;;;;;;;14.03;61.91;100856.66;5128297;28;20053;-69
2022/07/11 03:11:23;;;;;;;0.20;0.20;;;;;;;14.15;61.08;100866.06;5128014;28;20028;-69
2022/07/11 03:13:48;;;;;;;0.30;0.30;;;;;;;14.31;60.93;100862.31;5128029;28;20058;-69
2022/07/11 03:16:14;;;;;;;0.30;0.30;;;;;;;14.53;60.71;100864.53;5127904;28;20114;-69
2022/07/11 03:18:39;;;;;;;0.30;0.30;;;;;;;14.70;61.71;100837.22;5128165;28;20178;-68
2022/07/11 03:21:05;;;;;;;0.20;0.20;;;;;;;15.35;63.08;100862.13;5127840;28;20031;-68
2022/07/11 03:23:30;;;;;;;0.30;0.30;;;;;;;15.89;64.02;100868.81;5128049;28;20035;-69
2022/07/11 03:25:55;;;;;;;0.30;0.30;;;;;;;16.40;63.13;100859.78;5127276;28;20032;-69
2022/07/11 03:28:21;;;;;;;0.20;0.20;;;;;;;16.85;61.94;100855.09;5127719;28;20039;-69
2022/07/11 03:30:46;;;;;;;0.20;0.20;;;;;;;17.29;61.85;100859.13;5127535;28;20023;-69
2022/07/11 03:33:11;;;;;;;0.20;0.20;;;;;;;17.77;61.79;100857.72;5127763;28;20023;-69
2022/07/11 03:35:42;;;;;;;0.20;0.20;;;;;;;18.01;60.40;100860.44;5118889;28;20019;-69
2022/07/11 03:38:09;;;;;;;0.23;0.23;;;;;;;18.11;59.48;100854.91;5127683;28;20024;-69
2022/07/11 03:40:34;;;;;;;0.20;0.20;;;;;;;18.08;59.16;100850.63;5127245;28;20039;-68
2022/07/11 03:43:00;;;;;;;0.20;0.20;;;;;;;17.96;59.07;100852.72;5127600;28;20203;-68
2022/07/11 03:45:25;;;;;;;0.20;0.20;;;;;;;17.91;58.61;100853.75;5127257;28;20027;-69
2022/07/11 03:47:50;;;;;;;0.20;0.20;;;;;;;17.78;58.44;100856.78;5127195;28;20038;-68
2022/07/11 03:50:16;;;;;;;0.20;0.20;;;;;;;17.62;58.20;100863.44;5127379;28;20023;-69
2022/07/11 03:52:42;;;;;;;0.20;0.20;;;;;;;17.46;58.36;100869.13;5127385;28;20085;-69
2022/07/11 03:55:07;;;;;;;0.20;0.20;;;;;;;17.26;58.48;100865.34;5126953;28;20133;-69
2022/07/11 03:57:39;;;;;;;0.20;0.20;;;;;;;17.02;58.70;100859.88;5127015;28;20076;-68
2022/07/11 04:00:08;;;;;;;0.30;0.30;;;;;;;16.83;59.67;100864.78;5127038;28;20034;-69
2022/07/11 04:02:33;;;;;;;0.20;0.20;;;;;;;16.74;60.05;100860.66;5126928;28;20028;-67
2022/07/11 04:04:59;;;;;;;0.20;0.20;;;;;;;16.63;60.22;100862.69;5127017;28;20047;-68
2022/07/11 04:07:24;;;;;;;0.20;0.20;;;;;;;16.46;59.72;100840.41;5127004;28;20054;-69
2022/07/11 04:09:50;;;;;;;0.30;0.30;;;;;;;16.62;59.36;100867.06;5126953;28;20570;-69
2022/07/11 04:12:18;;;;;;;0.20;0.20;;;;;;;16.72;59.43;100863.28;5126747;28;20337;-69
2022/07/11 04:14:43;;;;;;;0.20;0.20;;;;;;;16.91;59.60;100864.56;5107385;28;20027;-69
2022/07/11 04:17:09;;;;;;;0.20;0.20;;;;;;;16.97;59.33;100848.66;5126648;28;20075;-69
2022/07/11 04:19:34;;;;;;;0.20;0.20;;;;;;;17.16;58.94;100854.25;5126540;28;20029;-69
2022/07/11 04:21:59;;;;;;;0.20;0.20;;;;;;;17.28;58.97;100852.19;5126742;28;20035;-68
2022/07/11 04:24:25;;;;;;;0.20;0.20;;;;;;;17.39;59.36;100863.22;5126889;28;20028;-69
2022/07/11 04:26:50;;;;;;;0.20;0.20;;;;;;;17.63;59.17;100859.91;5126169;28;20075;-67
2022/07/11 04:29:15;;;;;;;0.20;0.20;;;;;;;17.80;58.70;100862.84;5126590;28;20027;-70
2022/07/11 04:31:41;;;;;;;0.20;0.20;;;;;;;17.94;58.52;100862.41;5126751;28;20072;-71
2022/07/11 04:34:06;;;;;;;0.20;0.20;;;;;;;18.01;58.35;100841.19;5126134;28;20024;-72
2022/07/11 04:36:32;;;;;;;0.20;0.20;;;;;;;18.25;58.47;100867.59;5126411;28;20035;-72
2022/07/11 04:38:58;;;;;;;0.20;0.20;;;;;;;18.36;58.12;100864.59;5126365;28;20100;-72
2022/07/11 04:41:23;;;;;;;0.20;0.20;;;;;;;18.36;57.82;100869.88;5126204;28;20057;-72
2022/07/11 04:43:49;;;;;;;0.20;0.20;;;;;;;18.32;57.97;100877.84;5126327;28;20015;-73
2022/07/11 04:46:14;;;;;;;0.20;0.20;;;;;;;18.35;58.11;100878.66;5125891;28;20055;-72
2022/07/11 04:48:40;;;;;;;4.30;0.63;;;;;;;18.49;57.92;100876.44;5126353;28;20023;-74
2022/07/11 04:51:06;;;;;;;0.20;0.20;;;;;;;18.39;57.57;100854.00;5126473;28;20054;-73
2022/07/11 04:53:31;;;;;;;0.20;0.20;;;;;;;18.45;57.65;100872.22;5107892;28;20031;-74
2022/07/11 04:55:56;;;;;;;0.20;0.20;;;;;;;18.56;57.79;100877.09;5125901;28;20024;-72
2022/07/11 04:58:22;;;;;;;0.20;0.20;;;;;;;18.67;57.31;100884.59;5126196;28;20445;-73
2022/07/11 05:00:47;;;;;;;0.20;0.20;;;;;;;18.55;57.10;100881.47;5126216;28;20049;-73
2022/07/11 05:03:12;;;;;;;0.20;0.20;;;;;;;18.47;57.37;100882.66;5126086;28;20020;-73
2022/07/11 05:05:38;;;;;;;0.20;0.20;;;;;;;18.41;57.28;100881.09;5125952;28;20475;-73
2022/07/11 05:08:03;;;;;;;0.20;0.20;;;;;;;18.40;57.44;100879.38;5125884;28;20041;-73
2022/07/11 05:10:31;;;;;;;0.20;0.20;;;;;;;18.35;57.12;100878.66;5106997;28;20030;-72
2022/07/11 05:12:56;;;;;;;0.20;0.20;;;;;;;18.23;57.03;100875.53;5125725;28;20045;-73
2022/07/11 05:15:22;;;;;;;0.20;0.20;;;;;;;18.08;57.28;100864.59;5125630;28;20482;-73
2022/07/11 05:17:48;;;;;;;0.20;0.20;;;;;;;18.26;57.25;100885.94;5125660;28;20028;-73
2022/07/11 05:20:13;;;;;;;0.20;0.20;;;;;;;18.39;57.56;100882.91;5125625;28;20079;-74
2022/07/11 05:22:39;;;;;;;0.20;0.20;;;;;;;18.58;57.51;100889.25;5107431;28;20019;-73
2022/07/11 05:25:04;;;;;;;0.20;0.20;;;;;;;19.01;57.77;100883.38;5107074;28;20023;-73
2022/07/11 05:27:30;;;;;;;0.20;0.20;;;;;;;19.53;57.48;100895.56;5125409;28;20044;-73
2022/07/11 05:29:55;;;;;;;0.20;0.20;;;;;;;20.11;57.08;100889.84;5125502;28;20024;-74
2022/07/11 05:32:20;;;;;;;0.20;0.20;;;;;;;20.74;55.70;100883.69;5125701;28;20019;-74
2022/07/11 05:34:46;;;;;;;0.20;0.20;;;;;;;21.21;54.79;100894.84;5125742;28;20024;-73
2022/07/11 05:37:11;;;;;;;0.20;0.20;;;;;;;21.28;54.00;100901.56;5125310;28;20440;-72
2022/07/11 05:39:36;;;;;;;0.10;0.10;;;;;;;21.40;53.84;100883.44;5125603;28;20057;-72
2022/07/11 05:42:02;;;;;;;0.20;0.20;;;;;;;21.97;54.06;100877.25;5124958;28;20088;-73
2022/07/11 05:44:27;;;;;;;0.20;0.20;;;;;;;22.94;52.18;100901.50;5125125;28;20022;-73
2022/07/11 05:46:53;;;;;;;0.17;0.17;;;;;;;24.14;52.52;100894.09;5124730;28;20047;-72
2022/07/11 05:49:18;;;;;;;0.20;0.20;;;;;;;24.99;51.34;100872.31;5106191;28;20034;-73
2022/07/11 05:51:43;;;;;;;0.10;0.10;;;;;;;25.59;49.22;100901.34;5125312;28;20374;-74
2022/07/11 05:54:09;;;;;;;0.28;0.28;;;;;;;25.47;47.51;100896.81;5125094;28;20011;-73
2022/07/11 05:56:35;;;;;;;0.10;0.10;;;;;;;25.44;47.94;100902.31;5124843;28;20024;-73
2022/07/11 05:59:00;;;;;;;0.10;0.10;;;;;;;25.77;48.06;100905.63;5124963;28;20026;-73
2022/07/11 06:01:26;;;;;;;0.10;0.10;;;;;;;25.90;47.75;100911.81;5125260;28;20011;-73
2022/07/11 06:03:52;;;;;;;0.10;0.10;;;;;;;25.98;47.17;100903.34;5125164;28;20153;-73
2022/07/11 06:06:18;;;;;;;0.10;0.10;;;;;;;25.80;46.92;100902.75;5124727;28;20020;-73
2022/07/11 06:08:43;;;;;;;0.10;0.10;;;;;;;25.30;46.71;100901.41;5106556;28;20030;-72
2022/07/11 06:11:13;;;;;;;0.40;0.40;;;;;;;25.07;46.22;100900.19;5124584;28;20023;-73
2022/07/11 06:13:40;;;;;;;0.30;0.30;;;;;;;24.62;46.51;100907.25;5124832;28;20026;-74
2022/07/11 06:16:06;;;;;;;0.10;0.10;;;;;;;24.27;46.60;100912.84;5124278;28;20069;-73
2022/07/11 06:18:33;;;;;;;0.10;0.10;;;;;;;23.66;46.30;100924.19;5124768;28;20390;-73
2022/07/11 06:20:58;;;;;;;0.10;0.10;;;;;;;23.18;46.94;100914.38;5124514;28;20060;-72
2022/07/11 06:23:23;;;;;;;0.20;0.20;;;;;;;22.96;47.02;100917.31;5124556;28;20020;-73
2022/07/11 06:25:49;;;;;;;0.20;0.20;;;;;;;22.77;47.77;100915.63;5124134;28;20040;-73
2022/07/11 06:28:14;;;;;;;0.20;0.20;;;;;;;22.78;48.09;100922.63;5124557;28;20423;-73
2022/07/11 06:30:39;;;;;;;0.10;0.10;;;;;;;22.80;46.66;100925.19;5124900;28;20053;-73
2022/07/11 06:33:05;;;;;;;0.10;0.10;;;;;;;22.58;46.59;100905.13;5124458;28;20324;-73
2022/07/11 06:35:30;;;;;;;0.10;0.10;;;;;;;22.57;46.32;100922.78;5124477;28;20079;-73
2022/07/11 06:37:56;;;;;;;0.13;0.13;;;;;;;22.44;46.59;100919.91;5123899;28;20034;-73
2022/07/11 06:40:22;;;;;;;0.20;0.20;;;;;;;22.50;46.95;100914.31;5124288;28;20027;-73
2022/07/11 06:42:49;;;;;;;0.20;0.20;;;;;;;22.62;47.01;100918.13;5124050;28;20020;-73
2022/07/11 06:45:14;;;;;;;0.10;0.10;;;;;;;22.69;47.14;100918.69;5124205;28;20031;-73
2022/07/11 06:47:40;;;;;;;0.20;0.20;;;;;;;22.78;47.56;100919.97;5124532;28;20020;-73
2022/07/11 06:50:06;;;;;;;0.10;0.10;;;;;;;22.85;47.12;100916.09;5124563;28;20475;-73
2022/07/11 06:52:32;;;;;;;0.20;0.20;;;;;;;22.87;46.95;100921.31;5124352;28;20028;-73
2022/07/11 06:54:58;;;;;;;0.10;0.10;;;;;;;22.97;46.85;100921.69;5124270;28;20023;-73
2022/07/11 06:57:23;;;;;;;0.20;0.20;;;;;;;23.08;46.76;100918.47;5124059;28;20048;-73
2022/07/11 06:59:49;;;;;;;0.45;0.40;;;;;;;23.13;46.90;100929.69;5124278;28;20020;-73
2022/07/11 07:02:14;;;;;;;0.20;0.20;;;;;;;22.99;46.66;100925.94;5124142;28;20105;-73
2022/07/11 07:04:40;;;;;;;0.10;0.10;;;;;;;22.81;47.13;100932.22;5124225;28;20046;-73
2022/07/11 07:07:05;;;;;;;0.15;0.15;;;;;;;22.70;47.22;100922.19;5123744;28;20030;-73
2022/07/11 07:09:31;;;;;;;0.10;0.10;;;;;;;22.67;47.18;100915.25;5105724;28;20024;-74
2022/07/11 07:11:56;;;;;;;0.10;0.10;;;;;;;22.86;47.50;100925.75;5123702;28;20050;-74
2022/07/11 07:14:21;;;;;;;0.10;0.10;;;;;;;22.89;47.06;100925.56;5105486;28;20122;-73
2022/07/11 07:16:47;;;;;;;0.10;0.10;;;;;;;23.06;47.14;100925.63;5123859;28;20016;-73
2022/07/11 07:19:13;;;;;;;0.10;0.10;;;;;;;23.20;47.04;100932.81;5123858;28;20027;-73
2022/07/11 07:21:38;;;;;;;0.20;0.20;;;;;;;23.37;46.88;100934.59;5105399;28;20035;-73
2022/07/11 07:24:05;;;;;;;0.10;0.10;;;;;;;23.57;46.88;100933.53;5124026;28;20023;-73
2022/07/11 07:26:30;;;;;;;1.17;1.17;;;;;;;23.53;46.20;100916.09;5123358;28;20044;-73
2022/07/11 07:28:56;;;;;;;0.10;0.10;;;;;;;23.67;45.80;100925.91;5123747;28;20020;-74
2022/07/11 07:31:22;;;;;;;0.20;0.20;;;;;;;23.98;45.43;100940.09;5123828;28;20024;-73
2022/07/11 07:33:48;;;;;;;0.10;0.10;;;;;;;24.20;45.44;100928.25;5124007;28;20023;-73
2022/07/11 07:36:14;;;;;;;0.20;0.20;;;;;;;24.34;45.48;100940.75;5123618;28;20019;-74
2022/07/11 07:38:41;;;;;;;0.10;0.10;;;;;;;24.37;45.78;100942.34;5124212;28;20027;-73
2022/07/11 07:41:06;;;;;;;0.10;0.10;;;;;;;24.41;45.38;100945.69;5123330;28;20020;-73
2022/07/11 07:43:32;;;;;;;0.10;0.10;;;;;;;24.44;45.50;100950.81;5123587;28;20028;-74
2022/07/11 07:45:57;;;;;;;0.10;0.10;;;;;;;24.44;45.64;100941.03;5104851;28;20020;-73
2022/07/11 07:48:22;;;;;;;0.10;0.10;;;;;;;24.49;45.71;100944.28;5123890;28;20145;-73
2022/07/11 07:50:48;;;;;;;0.10;0.10;;;;;;;24.62;45.59;100938.22;5127650;28;20034;-73
2022/07/11 07:53:15;;;;;;;0.55;0.55;;;;;;;24.87;44.22;100942.09;5127457;28;20372;-73
2022/07/11 07:55:40;;;;;;;0.10;0.10;;;;;;;25.25;42.78;100938.91;5127059;28;20019;-72
2022/07/11 07:58:05;;;;;;;0.10;0.10;;;;;;;25.60;39.18;100955.38;5127561;28;20092;-73
2022/07/11 08:03:15;;;;;;;0.10;0.10;;;;;;;25.86;40.36;100958.19;5127406;28;20096;-72
2022/07/11 08:05:40;;;;;;;0.10;0.10;;;;;;;26.95;40.57;100955.47;5108650;28;20043;-71
2022/07/11 08:08:06;;;;;;;0.10;0.10;;;;;;;27.92;39.99;100954.91;5127130;28;20079;-72
2022/07/11 08:10:31;;;;;;;0.10;0.10;;;;;;;28.48;36.16;100957.06;5127056;28;20019;-72
2022/07/11 08:12:56;;;;;;;0.10;0.10;;;;;;;28.28;35.99;100957.59;5126907;28;20404;-72
2022/07/11 08:15:22;;;;;;;0.10;0.10;;;;;;;27.63;37.31;100963.19;5126990;28;20042;-71
2022/07/11 08:17:48;;;;;;;0.10;0.10;;;;;;;27.38;37.23;100962.25;5127129;28;20011;-72
2022/07/11 08:20:13;;;;;;;0.10;0.10;;;;;;;27.26;38.14;100960.47;5126980;28;20039;-72
2022/07/11 08:22:38;;;;;;;0.10;0.10;;;;;;;27.12;38.24;100946.34;5126778;28;20501;-72
2022/07/11 08:25:04;;;;;;;0.10;0.10;;;;;;;27.34;38.78;100955.47;5108351;28;20050;-72
2022/07/11 08:27:29;;;;;;;6.80;0.80;;;;;;;27.15;36.77;100958.56;5126664;28;20067;-72
2022/07/11 08:29:55;;;;;;;0.10;0.10;;;;;;;27.21;37.72;100964.34;5127105;28;20054;-71
2022/07/11 08:32:20;;;;;;;0.32;0.32;;;;;;;27.33;36.28;100961.75;5126725;28;20446;-73
2022/07/11 08:34:46;;;;;;;0.10;0.10;;;;;;;26.82;35.95;100943.00;5108389;28;20500;-72
2022/07/11 08:37:11;;;;;;;0.10;0.10;;;;;;;26.77;36.11;100965.59;5126471;28;20034;-72
2022/07/11 08:39:37;;;;;;;0.10;0.10;;;;;;;26.57;35.33;100959.81;5126576;28;20467;-72
2022/07/11 08:42:03;;;;;;;0.10;0.10;;;;;;;26.31;36.07;100965.06;5126189;28;20292;-71
2022/07/11 08:44:28;;;;;;;0.10;0.10;;;;;;;26.08;36.64;100967.41;5126570;28;20024;-72
2022/07/11 08:46:54;;;;;;;0.10;0.10;;;;;;;25.98;37.33;100970.69;5126098;28;20020;-72
2022/07/11 08:49:20;;;;;;;0.30;0.30;;;;;;;25.97;37.20;100973.44;5126337;28;20023;-73
2022/07/11 08:51:47;;;;;;;0.35;0.35;;;;;;;25.61;37.67;100954.41;5126299;28;20076;-73
2022/07/11 08:54:12;;;;;;;0.10;0.10;;;;;;;25.43;37.32;100981.19;5126169;28;20043;-73
2022/07/11 08:56:38;;;;;;;0.10;0.10;;;;;;;24.57;37.80;100956.25;5126060;28;20023;-71
2022/07/11 08:59:04;;;;;;;0.10;0.10;;;;;;;24.07;38.35;100983.81;5125977;28;20030;-72
2022/07/11 09:01:34;;;;;;;0.20;0.20;;;;;;;23.73;39.10;100977.72;5126263;28;20026;-72
2022/07/11 09:04:00;;;;;;;0.10;0.10;;;;;;;23.91;39.77;100981.16;5126248;28;20043;-72
2022/07/11 09:06:27;;;;;;;0.10;0.10;;;;;;;24.10;39.49;100980.09;5126229;28;20028;-72
2022/07/11 09:08:57;;;;;;;0.10;0.10;;;;;;;24.48;38.90;100973.56;5125989;28;20023;-71
2022/07/11 09:11:22;;;;;;;0.20;0.20;;;;;;;24.70;39.21;100982.91;5125857;28;20072;-71
2022/07/11 09:13:47;;;;;;;0.10;0.10;;;;;;;24.99;38.97;100983.00;5125731;28;20031;-71
2022/07/11 09:16:13;;;;;;;0.13;0.13;;;;;;;25.09;39.12;100984.16;5126103;28;20027;-71
2022/07/11 09:18:40;;;;;;;0.10;0.10;;;;;;;25.74;39.00;100989.06;5126657;28;20050;-71
2022/07/11 09:26:50;;;;;;;0.10;0.10;;;;;;;28.31;36.69;100988.53;5125529;28;20054;-71
2022/07/11 09:29:19;;;;;;;0.10;0.10;;;;;;;28.83;36.11;100977.56;5125663;28;20386;-73
2022/07/11 09:31:45;;;;;;;0.10;0.10;;;;;;;29.02;35.35;100984.16;5125790;28;20031;-72
2022/07/11 09:34:13;;;;;;;0.10;0.10;;;;;;;29.07;35.48;100977.47;5125393;28;20023;-72
2022/07/11 09:36:38;;;;;;;0.10;0.10;;;;;;;29.08;34.03;100986.34;5125390;28;20022;-71
2022/07/11 09:39:05;;;;;;;0.10;0.10;;;;;;;29.28;34.90;100984.75;5125424;28;20015;-73
2022/07/11 09:41:35;;;;;;;0.10;0.10;;;;;;;29.69;35.14;100973.56;5125438;28;20019;-72
2022/07/11 09:44:11;;;;;;;0.10;0.10;;;;;;;30.26;34.63;100978.78;5125334;28;20102;-72
2022/07/11 09:46:37;;;;;;;0.20;0.20;;;;;;;30.72;34.31;100969.66;5125185;28;20028;-72
2022/07/11 09:49:03;;;;;;;0.10;0.10;;;;;;;31.37;32.67;100988.22;5125175;28;20030;-72
2022/07/11 09:51:31;;;;;;;0.17;0.17;;;;;;;32.54;31.45;100987.66;5106684;28;20398;-73
2022/07/11 09:53:57;;;;;;;0.10;0.10;;;;;;;33.44;29.50;100978.28;5125359;28;20042;-73
2022/07/11 09:56:40;;;;;;;0.00;0.00;;;;;;;33.83;27.24;100979.94;5125044;28;20019;-73
2022/07/11 09:59:08;;;;;;;0.10;0.10;;;;;;;34.07;23.56;100975.78;5125056;28;20164;-73
2022/07/11 10:01:34;;;;;;;0.10;0.10;;;;;;;32.59;24.36;100973.78;5124870;28;20483;-73
2022/07/11 10:03:59;;;;;;;0.10;0.10;;;;;;;31.61;26.55;100978.97;5124897;28;20020;-73
2022/07/11 10:06:26;;;;;;;0.10;0.10;;;;;;;31.32;26.33;100974.31;5124616;28;20111;-73
2022/07/11 10:08:52;;;;;;;0.10;0.10;;;;;;;30.97;26.58;100976.44;5124663;28;20023;-73
2022/07/11 10:11:18;;;;;;;0.10;0.10;;;;;;;30.54;27.08;100972.91;5123936;28;20054;-73
2022/07/11 10:13:44;;;;;;;0.10;0.10;;;;;;;30.33;26.60;100968.41;5124792;28;20733;-73
2022/07/11 10:16:22;;;;;;;0.10;0.10;;;;;;;29.41;27.37;100965.91;5124487;28;20026;-72
2022/07/11 10:18:56;;;;;;;0.10;0.10;;;;;;;28.87;27.60;100968.31;5124682;28;20024;-73
2022/07/11 10:21:44;;;;;;;0.10;0.10;;;;;;;28.17;28.45;100971.75;5124501;28;20031;-72
2022/07/11 10:24:19;;;;;;;0.10;0.10;;;;;;;28.38;29.34;100971.13;5124505;28;20030;-72
2022/07/11 10:26:55;;;;;;;0.10;0.10;;;;;;;28.80;29.56;100964.44;5124167;28;20130;-72
2022/07/11 10:29:31;;;;;;;0.10;0.10;;;;;;;29.50;29.94;100968.84;5124663;28;20054;-72
2022/07/11 10:32:07;;;;;;;0.10;0.10;;;;;;;29.65;28.95;100966.78;5124474;28;20517;-72
2022/07/11 10:34:32;;;;;;;0.45;0.45;;;;;;;29.33;29.37;100946.97;5124400;28;20035;-73
2022/07/11 10:37:06;;;;;;;0.10;0.10;;;;;;;29.07;29.66;100958.75;5124257;28;20019;-72
2022/07/11 10:39:34;;;;;;;0.20;0.20;;;;;;;28.44;30.51;100951.13;5124526;28;20028;-72
2022/07/11 10:42:02;;;;;;;0.10;0.10;;;;;;;27.99;31.03;100971.28;5124136;28;20024;-72
2022/07/11 10:44:46;;;;;;;0.10;0.10;;;;;;;27.65;31.60;100960.41;5124385;28;20055;-72
2022/07/11 10:47:38;;;;;;;0.10;0.10;;;;;;;27.13;32.45;100972.00;5123946;28;20407;-72
2022/07/11 10:50:12;;;;;;;0.10;0.10;;;;;;;26.83;32.85;100971.34;5124073;28;20020;-72
2022/07/11 10:52:40;;;;;;;0.10;0.10;;;;;;;26.86;32.97;100978.25;5124201;28;20507;-72
2022/07/11 10:55:19;;;;;;;0.10;0.10;;;;;;;27.03;33.31;100976.28;5124202;28;20020;-72
2022/07/11 10:57:51;;;;;;;0.10;0.10;;;;;;;27.67;32.91;100980.69;5124000;28;20043;-72
2022/07/11 11:00:21;;;;;;;0.10;0.10;;;;;;;28.14;32.75;100974.66;5124186;28;20019;-72
2022/07/11 11:03:04;;;;;;;0.10;0.10;;;;;;;28.44;32.60;100977.81;5124108;28;20023;-73
2022/07/11 11:05:44;;;;;;;0.30;0.30;;;;;;;28.70;31.57;100978.50;5105210;28;20502;-72
2022/07/11 11:08:31;;;;;;;0.10;0.10;;;;;;;28.66;31.95;100971.69;5123993;28;20056;-72
2022/07/11 11:10:58;;;;;;;0.10;0.10;;;;;;;28.44;31.54;100970.66;5123996;28;20024;-73
2022/07/11 11:13:24;;;;;;;0.10;0.10;;;;;;;28.16;32.02;100966.53;5124014;28;20012;-73
2022/07/11 11:15:51;;;;;;;0.25;0.25;;;;;;;28.20;32.13;100974.19;5123958;28;20020;-73
2022/07/11 11:18:23;;;;;;;0.10;0.10;;;;;;;28.33;32.50;100978.63;5123966;28;20023;-71
2022/07/11 11:20:57;;;;;;;;;;;;;;;28.44;32.41;100978.69;5124645;28;20016;-71
2022/07/11 11:23:24;;;;;;;0.10;0.10;;;;;;;28.48;32.37;100979.31;5125757;28;19912;-72
2022/07/11 11:25:50;;;;;;;0.10;0.10;;;;;;;28.29;32.24;100977.13;5127167;28;20100;-72
2022/07/11 11:28:20;;;;;;;0.20;0.20;;;;;;;28.16;32.96;100978.06;5109513;28;20027;-72
2022/07/11 11:30:55;;;;;;;0.10;0.10;;;;;;;28.19;32.97;100980.50;5128195;28;20016;-73